Main page


Airports :

Schwäbisch Hall, Germany

latitude: 49-07-06N, longitude: 9-47-02E, elevation: 398 m

Current weather observation

The report was made 38 minutes ago, at 16:50 UTC
Wind 10 kt from the East
Temperature 7°C
Humidity 57%
Pressure 1002 hPa
Visibility 10 km or more
Few clouds at a height of 4400 ft

METAR: EDTY 241650Z 09010KT 9999 FEW044 07/M01 Q1002

Time: 18:28 (17:28 UTC)


The report was made 3 hours and 28 minutes ago, at 14:00 UTC
Forecast valid from 24 at 15 UTC to 24 at 24 UTC
Wind 10 kt from the East/Southeast
Visibility 10 km or more
Few clouds at a height of 3500 ft
from 24 at 17 UTC to 24 at 20 UTC
Wind 5 kt from the East/Northeast

TAF: EDTY 241400Z 2415/2424 12010KT 9999 FEW035 BECMG 2417/2420 07005KT

Weather observations and forecasts of more than 4000 airports (METAR and TAF reports).

The available stations are represented by yellow and red dots on the map.

Hover mouse over dot to see the name of the station.

Then click to see weather observations and forecasts.

To change the map : click on the green buttons with a black cross to zoom in, on the green button with a dash to zoom out, or on the green arrows for adjacent maps.